EST,Max TemperatureF,Mean TemperatureF,Min TemperatureF,Max Dew PointF,MeanDew PointF,Min DewpointF,Max Humidity, Mean Humidity, Min Humidity, Max Sea Level PressureIn, Mean Sea Level PressureIn, Min Sea Level PressureIn, Max VisibilityMiles, Mean VisibilityMiles, Min VisibilityMiles, Max Wind SpeedMPH, Mean Wind SpeedMPH, Max Gust SpeedMPH,PrecipitationIn, CloudCover, Events, WindDirDegrees
2012-12-1,34,31,28,32,26,22,96,82,75,30.55,30.50,30.46,,,,7,5,,0.00,,,38
2012-12-2,46,40,33,44,38,32,100,94,85,30.44,30.28,30.14,,,,6,0,,0.06,,,223
2012-12-3,61,48,35,48,42,35,100,87,58,30.29,30.21,30.13,,,,5,1,,0.00,,,231
2012-12-4,63,52,42,54,48,40,96,86,70,30.27,30.16,29.96,,,,5,1,,0.11,,,200
2012-12-5,57,44,32,51,32,16,89,61,43,30.27,30.09,29.91,,,,12,5,21,0.01,,,345
2012-12-6,41,32,24,22,18,16,88,62,36,30.39,30.32,30.27,,,,10,5,,0.00,,,12
2012-12-7,39,31,25,37,31,22,97,91,84,30.28,30.16,30.04,,,,0,0,,0.15,,,-1
2012-12-8,46,42,37,45,42,37,100,96,92,30.02,29.96,29.89,,,,5,1,,0.17,,,204
2012-12-9,45,41,37,44,37,31,97,85,65,30.26,30.17,30.03,,,,8,2,,0.20,,,28
2012-12-10,52,46,39,51,45,38,100,97,85,29.99,29.71,29.56,,,,12,2,21,0.04,,,288
2012-12-11,44,38,30,39,32,27,88,73,58,30.22,29.96,29.69,,,,8,4,,0.01,,,353
2012-12-12,41,34,28,30,26,23,92,79,49,30.47,30.38,30.22,,,,6,0,,0.00,,,355
2012-12-13,44,34,24,27,24,21,92,76,40,30.50,30.43,30.34,,,,4,0,,0.00,,,-1
2012-12-14,46,34,21,28,24,19,92,77,44,30.34,30.26,30.18,,,,6,1,,0.02,,,206
2012-12-15,46,36,25,33,28,22,92,79,48,30.35,30.28,30.21,,,,5,0,,0.03,,,220
2012-12-16,44,40,37,41,37,31,97,86,67,30.19,30.05,29.92,,,,6,2,,0.09,,,20
2012-12-17,39,38,37,39,37,35,97,95,93,29.93,29.85,29.62,,,,7,4,,0.33,,,33
2012-12-18,50,44,39,44,39,32,97,85,67,29.66,29.56,29.47,,,,9,2,16,0.40,,,245
2012-12-19,44,38,33,33,27,24,77,60,51,30.16,29.89,29.67,,,,14,7,30,0.00,,,341
2012-12-20,42,35,28,39,28,24,89,74,55,30.23,30.10,29.76,,,,6,2,,0.17,,,3
2012-12-21,55,44,33,52,36,26,89,79,67,29.69,29.30,29.09,,,,15,7,32,2.21,,,210
2012-12-22,36,34,33,30,22,17,89,60,46,29.87,29.62,29.33,,,,14,8,33,0.12,,,309
2012-12-23,37,32,25,24,21,17,88,61,44,29.99,29.92,29.87,,,,13,6,22,0.07,,,216
2012-12-24,36,28,21,29,22,18,92,76,50,30.12,30.04,29.94,,,,5,0,,0.11,,,40
2012-12-25,37,34,28,29,27,21,92,79,69,30.28,30.11,29.93,,,,7,4,,0.15,,,11
2012-12-26,78,51,24,54,23,18,92,82,42,30.31,30.06,29.58,,,,13,6,21,0.80,,,35
2012-12-27,35,32,28,32,26,17,92,80,63,29.89,29.59,29.39,,,,12,8,29,0.34,,,359
2012-12-28,34,28,21,21,20,18,92,70,59,30.11,30.05,29.91,,,,12,6,25,0.09,,,345
2012-12-29,30,24,19,26,23,18,92,86,72,30.05,29.78,29.57,,,,7,2,,0.32,,,12
2012-12-30,33,30,25,21,15,11,69,56,45,30.21,29.99,29.66,,,,16,9,29,0.08,,,336
2012-12-31,34,26,19,22,18,13,74,62,56,30.21,30.08,29.91,,,,7,3,16,0.03,,,214